createdAt,value
2022-10-04T00:00:25.690Z,101071.00
2022-10-04T00:02:54.169Z,101065.00
2022-10-04T00:05:23.872Z,101068.00
2022-10-04T00:07:54.135Z,101066.00
2022-10-04T00:10:28.354Z,101058.00
2022-10-04T00:13:05.123Z,101060.00
2022-10-04T00:15:34.206Z,101063.00
2022-10-04T00:18:21.219Z,101065.00
2022-10-04T00:20:50.754Z,101068.00
2022-10-04T00:23:23.338Z,101066.00
2022-10-04T00:26:00.403Z,101073.00
2022-10-04T00:28:28.734Z,101071.00
2022-10-04T00:31:04.449Z,101065.00
2022-10-04T00:33:34.795Z,101068.00
2022-10-04T00:36:01.285Z,101066.00
2022-10-04T00:38:28.695Z,101076.00
2022-10-04T00:41:01.861Z,101066.00
2022-10-04T00:43:44.037Z,101064.00
2022-10-04T00:46:11.609Z,101060.00
2022-10-04T00:48:51.693Z,101064.00
2022-10-04T00:51:30.403Z,101070.00
2022-10-04T00:54:04.644Z,101064.00
2022-10-04T00:56:51.024Z,101062.00
2022-10-04T00:59:36.537Z,101062.00
2022-10-04T01:02:03.211Z,101063.00
2022-10-04T01:04:41.911Z,101064.00
2022-10-04T01:07:10.363Z,101065.00
2022-10-04T01:09:42.560Z,101067.00
2022-10-04T01:12:22.304Z,101066.00
2022-10-04T01:15:13.560Z,101058.00
2022-10-04T01:17:40.494Z,101055.00
2022-10-04T01:20:33.976Z,101049.00
2022-10-04T01:23:00.535Z,101048.00
2022-10-04T01:25:44.269Z,101045.00
2022-10-04T01:28:10.848Z,101047.00
2022-10-04T01:30:37.425Z,101046.00
2022-10-04T01:33:06.875Z,101051.00
2022-10-04T01:35:35.364Z,101048.00
2022-10-04T01:38:07.202Z,101046.00
2022-10-04T01:40:35.930Z,101044.00
2022-10-04T01:43:06.820Z,101043.00
2022-10-04T01:45:57.035Z,101047.00
2022-10-04T01:48:26.165Z,101047.00
2022-10-04T01:51:04.506Z,101048.00
2022-10-04T01:53:32.592Z,101055.00
2022-10-04T01:56:12.666Z,101044.00
2022-10-04T01:58:43.256Z,101050.00
2022-10-04T02:01:18.310Z,101038.00
2022-10-04T02:03:54.497Z,101051.00
2022-10-04T02:06:21.336Z,101046.00
2022-10-04T02:08:49.891Z,101053.00
2022-10-04T02:11:20.155Z,101043.00
2022-10-04T02:13:48.785Z,101048.00
2022-10-04T02:16:16.580Z,101043.00
2022-10-04T02:18:44.044Z,101045.00
2022-10-04T02:21:12.124Z,101042.00
2022-10-04T02:23:39.424Z,101043.00
2022-10-04T02:26:07.057Z,101037.00
2022-10-04T02:28:34.513Z,101030.00
2022-10-04T02:31:20.254Z,101034.00
2022-10-04T02:33:49.210Z,101037.00
2022-10-04T02:36:16.194Z,101038.00
2022-10-04T02:38:55.034Z,101035.00
2022-10-04T02:41:33.171Z,101034.00
2022-10-04T02:44:10.596Z,101033.00
2022-10-04T02:46:46.562Z,101036.00
2022-10-04T02:49:31.958Z,101028.00
2022-10-04T02:52:19.212Z,101029.00
2022-10-04T02:54:56.429Z,101027.00
2022-10-04T02:57:23.835Z,101036.00
2022-10-04T02:59:52.626Z,101029.00
2022-10-04T03:02:29.495Z,101039.00
2022-10-04T03:04:59.647Z,101033.00
2022-10-04T03:07:26.683Z,101046.00
2022-10-04T03:09:53.551Z,101048.00
2022-10-04T03:12:22.210Z,101040.00
2022-10-04T03:14:48.681Z,101046.00
2022-10-04T03:17:16.177Z,101051.00
2022-10-04T03:19:43.975Z,101037.00
2022-10-04T03:22:12.231Z,101048.00
2022-10-04T03:24:47.129Z,101036.00
2022-10-04T03:27:20.531Z,101038.00
2022-10-04T03:29:47.086Z,101040.00
2022-10-04T03:32:14.979Z,101046.00
2022-10-04T03:34:44.050Z,101034.00
2022-10-04T03:37:15.110Z,101039.00
2022-10-04T03:39:44.477Z,101047.00
2022-10-04T03:42:14.605Z,101044.00
2022-10-04T03:44:42.199Z,101043.00
2022-10-04T03:47:11.168Z,101047.00
2022-10-04T03:49:38.405Z,101039.00
2022-10-04T03:52:05.956Z,101042.00
2022-10-04T03:54:33.341Z,101043.00
2022-10-04T03:57:00.185Z,101039.00
2022-10-04T03:59:27.631Z,101043.00
2022-10-04T04:02:16.281Z,101040.00
2022-10-04T04:04:53.921Z,101035.00
2022-10-04T04:07:31.439Z,101041.00
2022-10-04T04:10:05.491Z,101055.00
2022-10-04T04:12:38.972Z,101051.00
2022-10-04T04:15:09.967Z,101053.00
2022-10-04T04:17:39.190Z,101053.00
2022-10-04T04:20:07.825Z,101049.00
2022-10-04T04:22:34.665Z,101048.00
2022-10-04T04:25:04.788Z,101044.00
2022-10-04T04:27:34.802Z,101061.00
2022-10-04T04:30:01.761Z,101060.00
2022-10-04T04:32:36.736Z,101048.00
2022-10-04T04:35:07.818Z,101057.00
2022-10-04T04:37:38.323Z,101059.00
2022-10-04T04:40:24.966Z,101057.00
2022-10-04T04:42:52.335Z,101054.00
2022-10-04T04:45:25.725Z,101064.00
2022-10-04T04:47:54.256Z,101062.00
2022-10-04T04:50:25.870Z,101061.00
2022-10-04T04:53:14.914Z,101061.00
2022-10-04T04:56:12.724Z,101057.00
2022-10-04T04:58:44.117Z,101054.00
2022-10-04T05:01:32.424Z,101063.00
2022-10-04T05:04:13.796Z,101063.00
2022-10-04T05:06:49.109Z,101059.00
2022-10-04T05:09:27.275Z,101058.00
2022-10-04T05:11:57.276Z,101055.00
2022-10-04T05:14:23.825Z,101061.00
2022-10-04T05:16:54.830Z,101060.00
2022-10-04T05:19:24.830Z,101068.00
2022-10-04T05:21:55.683Z,101068.00
2022-10-04T05:24:37.644Z,101066.00
2022-10-04T05:27:06.919Z,101063.00
2022-10-04T05:29:34.600Z,101064.00
2022-10-04T05:32:22.934Z,101065.00
2022-10-04T05:34:50.982Z,101067.00
2022-10-04T05:37:30.043Z,101063.00
2022-10-04T05:40:02.524Z,101068.00
2022-10-04T05:42:45.350Z,101070.00
2022-10-04T05:45:17.881Z,101065.00
2022-10-04T05:47:46.338Z,101066.00
2022-10-04T05:50:36.038Z,101078.00
2022-10-04T05:53:47.701Z,101076.00
2022-10-04T05:56:30.276Z,101082.00
2022-10-04T05:59:09.920Z,101080.00
2022-10-04T06:01:52.977Z,101087.00
2022-10-04T06:04:38.495Z,101087.00
2022-10-04T06:07:46.678Z,101085.00
2022-10-04T06:10:44.245Z,101085.00
2022-10-04T06:13:32.653Z,101100.00
2022-10-04T06:16:08.867Z,101095.00
2022-10-04T06:18:58.866Z,101099.00
2022-10-04T06:21:27.731Z,101106.00
2022-10-04T06:24:14.338Z,101094.00
2022-10-04T06:26:48.729Z,101096.00
2022-10-04T06:29:20.542Z,101096.00
2022-10-04T06:31:57.048Z,101105.00
2022-10-04T06:34:48.809Z,101100.00
2022-10-04T06:37:24.155Z,101096.00
2022-10-04T06:39:56.687Z,101100.00
2022-10-04T06:42:23.128Z,101100.00
2022-10-04T06:45:09.414Z,101095.00
2022-10-04T06:48:04.033Z,101100.00
2022-10-04T06:50:46.800Z,101095.00
2022-10-04T06:53:38.693Z,101103.00
2022-10-04T06:56:26.354Z,101104.00
2022-10-04T06:59:05.024Z,101104.00
2022-10-04T07:01:33.501Z,101104.00
2022-10-04T07:04:00.079Z,101114.00
2022-10-04T07:06:30.918Z,101120.00
2022-10-04T07:09:02.403Z,101117.00
2022-10-04T07:11:32.824Z,101127.00
2022-10-04T07:14:06.366Z,101124.00
2022-10-04T07:16:56.389Z,101119.00
2022-10-04T07:19:49.189Z,101132.00
2022-10-04T07:22:17.808Z,101128.00
2022-10-04T07:24:50.768Z,101134.00
2022-10-04T07:27:20.920Z,101141.00
2022-10-04T07:29:54.093Z,101134.00
2022-10-04T07:32:27.841Z,101141.00
2022-10-04T07:35:05.922Z,101143.00
2022-10-04T07:37:36.789Z,101147.00
2022-10-04T07:40:26.397Z,101152.00
2022-10-04T07:43:25.239Z,101152.00
2022-10-04T07:46:03.832Z,101156.00
2022-10-04T07:48:30.498Z,101153.00
2022-10-04T07:51:09.285Z,101151.00
2022-10-04T07:53:59.286Z,101162.00
2022-10-04T07:56:59.958Z,101160.00
2022-10-04T07:59:33.042Z,101168.00
2022-10-04T08:02:09.277Z,101165.00
2022-10-04T08:04:45.349Z,101165.00
2022-10-04T08:07:16.975Z,101169.00
2022-10-04T08:10:25.764Z,101182.00
2022-10-04T08:12:57.518Z,101178.00
2022-10-04T08:15:38.850Z,101187.00
2022-10-04T08:18:17.108Z,101192.00
2022-10-04T08:21:01.061Z,101189.00
2022-10-04T08:23:47.094Z,101199.00
2022-10-04T08:26:57.990Z,101198.00
2022-10-04T08:29:43.350Z,101195.00
2022-10-04T08:32:44.018Z,101194.00
2022-10-04T08:35:27.485Z,101199.00
2022-10-04T08:38:13.343Z,101204.00
2022-10-04T08:41:08.382Z,101206.00
2022-10-04T08:43:44.002Z,101211.00
2022-10-04T08:46:29.923Z,101203.00
2022-10-04T08:49:08.560Z,101204.00
2022-10-04T08:51:56.829Z,101202.00
2022-10-04T08:54:46.511Z,101205.00
2022-10-04T08:57:16.557Z,101204.00
2022-10-04T09:00:05.927Z,101196.00
2022-10-04T09:02:46.345Z,101195.00
2022-10-04T09:05:37.996Z,101196.00
2022-10-04T09:08:23.273Z,101191.00
2022-10-04T09:11:11.230Z,101196.00
2022-10-04T09:13:59.582Z,101195.00
2022-10-04T09:16:48.235Z,101196.00
2022-10-04T09:19:39.924Z,101192.00
2022-10-04T09:22:42.933Z,101190.00
2022-10-04T09:25:43.461Z,101201.00
2022-10-04T09:28:20.733Z,101205.00
2022-10-04T09:31:13.787Z,101208.00
2022-10-04T09:33:49.511Z,101202.00
2022-10-04T09:36:42.269Z,101200.00
2022-10-04T09:39:36.346Z,101197.00
2022-10-04T09:42:23.770Z,101191.00
2022-10-04T09:45:30.122Z,101203.00
2022-10-04T09:48:25.122Z,101202.00
2022-10-04T09:50:57.772Z,101190.00
2022-10-04T09:53:34.321Z,101186.00
2022-10-04T09:56:27.488Z,101192.00
2022-10-04T09:59:02.907Z,101192.00
2022-10-04T10:01:41.462Z,101193.00
2022-10-04T10:04:14.231Z,101184.00
2022-10-04T10:06:50.087Z,101182.00
2022-10-04T10:09:54.988Z,101182.00
2022-10-04T10:12:55.634Z,101183.00
2022-10-04T10:15:44.107Z,101184.00
2022-10-04T10:18:16.807Z,101183.00
2022-10-04T10:21:21.342Z,101179.00
2022-10-04T10:23:57.784Z,101167.00
2022-10-04T10:26:53.179Z,101181.00
2022-10-04T10:29:40.892Z,101177.00
2022-10-04T10:32:48.557Z,101180.00
2022-10-04T10:35:32.341Z,101174.00
2022-10-04T10:38:32.152Z,101178.00
2022-10-04T10:41:31.237Z,101187.00
2022-10-04T10:44:07.761Z,101181.00
2022-10-04T10:46:49.762Z,101184.00
2022-10-04T10:50:04.870Z,101183.00
2022-10-04T10:52:59.319Z,101194.00
2022-10-04T10:55:41.111Z,101182.00
2022-10-04T10:58:29.387Z,101192.00
2022-10-04T11:01:02.301Z,101181.00
2022-10-04T11:04:09.912Z,101182.00
2022-10-04T11:13:56.955Z,101181.00
2022-10-04T11:16:41.564Z,101191.00
2022-10-04T11:19:40.793Z,101191.00
2022-10-04T11:22:32.698Z,101193.00
2022-10-04T11:25:07.302Z,101190.00
2022-10-04T11:28:12.770Z,101190.00
2022-10-04T11:31:01.206Z,101192.00
2022-10-04T11:34:02.337Z,101178.00
2022-10-04T11:36:49.283Z,101176.00
2022-10-04T11:39:53.645Z,101174.00
2022-10-04T11:42:33.097Z,101180.00
2022-10-04T11:45:36.304Z,101175.00
2022-10-04T11:48:38.342Z,101185.00
2022-10-04T11:51:22.836Z,101180.00
2022-10-04T11:54:27.961Z,101170.00
2022-10-04T11:57:19.164Z,101174.00
2022-10-04T11:59:53.235Z,101164.00
2022-10-04T12:02:32.212Z,101160.00
2022-10-04T12:05:23.399Z,101163.00
2022-10-04T12:08:17.367Z,101160.00
2022-10-04T12:10:51.212Z,101161.00
2022-10-04T12:13:26.963Z,101155.00
2022-10-04T12:16:05.416Z,101158.00
2022-10-04T12:18:52.600Z,101150.00
2022-10-04T12:21:42.393Z,101155.00
2022-10-04T12:24:26.948Z,101158.00
2022-10-04T12:27:12.115Z,101168.00
2022-10-04T12:30:02.628Z,101160.00
2022-10-04T12:32:37.313Z,101156.00
2022-10-04T12:35:25.398Z,101156.00
2022-10-04T12:38:12.100Z,101151.00
2022-10-04T12:40:42.102Z,101152.00
2022-10-04T12:43:46.237Z,101162.00
2022-10-04T12:46:33.463Z,101164.00
2022-10-04T12:49:12.704Z,101156.00
2022-10-04T12:51:54.258Z,101149.00
2022-10-04T12:54:27.094Z,101158.00
2022-10-04T12:57:04.077Z,101157.00
2022-10-04T12:59:44.321Z,101157.00
2022-10-04T13:02:35.869Z,101146.00
2022-10-04T13:05:17.288Z,101157.00
2022-10-04T13:08:28.533Z,101154.00
2022-10-04T13:11:34.812Z,101151.00
2022-10-04T13:14:14.699Z,101157.00
2022-10-04T13:20:03.284Z,101141.00
2022-10-04T13:22:56.508Z,101139.00
2022-10-04T13:25:29.659Z,101139.00
2022-10-04T13:28:05.721Z,101136.00
2022-10-04T13:30:47.821Z,101129.00
2022-10-04T13:33:24.572Z,101117.00
2022-10-04T13:36:11.860Z,101119.00
2022-10-04T13:38:44.199Z,101117.00
2022-10-04T13:41:31.011Z,101125.00
2022-10-04T13:44:05.086Z,101116.00
2022-10-04T13:46:59.024Z,101115.00
2022-10-04T13:49:30.684Z,101110.00
2022-10-04T13:52:45.410Z,101106.00
2022-10-04T13:55:40.250Z,101106.00
2022-10-04T13:58:29.034Z,101104.00
2022-10-04T14:01:31.139Z,101101.00
2022-10-04T14:04:26.796Z,101094.00
2022-10-04T14:06:56.228Z,101091.00
2022-10-04T14:09:44.889Z,101085.00
2022-10-04T14:12:25.840Z,101091.00
2022-10-04T14:15:04.329Z,101078.00
2022-10-04T14:17:52.873Z,101072.00
2022-10-04T14:20:39.099Z,101074.00
2022-10-04T14:23:24.186Z,101080.00
2022-10-04T14:26:16.871Z,101073.00
2022-10-04T14:29:01.891Z,101074.00
2022-10-04T14:31:55.594Z,101074.00
2022-10-04T14:34:47.281Z,101061.00
2022-10-04T14:37:38.667Z,101056.00
2022-10-04T14:40:27.568Z,101062.00
2022-10-04T14:43:18.875Z,101065.00
2022-10-04T14:46:10.120Z,101068.00
2022-10-04T14:48:57.029Z,101063.00
2022-10-04T14:51:42.505Z,101063.00
2022-10-04T14:54:15.899Z,101063.00
2022-10-04T14:56:52.230Z,101065.00
2022-10-04T14:59:40.438Z,101062.00
2022-10-04T15:02:32.104Z,101051.00
2022-10-04T15:05:36.193Z,101056.00
2022-10-04T15:08:20.898Z,101048.00
2022-10-04T15:11:02.136Z,101044.00
2022-10-04T15:13:55.673Z,101053.00
2022-10-04T15:16:33.830Z,101039.00
2022-10-04T15:19:05.772Z,101040.00
2022-10-04T15:21:45.649Z,101041.00
2022-10-04T15:24:18.296Z,101036.00
2022-10-04T15:27:18.659Z,101042.00
2022-10-04T15:29:54.299Z,101038.00
2022-10-04T15:32:38.089Z,101035.00
2022-10-04T15:35:17.746Z,101035.00
2022-10-04T15:38:04.422Z,101028.00
2022-10-04T15:40:34.298Z,101032.00
2022-10-04T15:43:13.268Z,101031.00
2022-10-04T15:46:03.534Z,101027.00
2022-10-04T15:48:48.559Z,101033.00
2022-10-04T15:51:41.523Z,101043.00
2022-10-04T15:54:13.811Z,101047.00
2022-10-04T15:56:40.230Z,101041.00
2022-10-04T15:59:30.070Z,101048.00
2022-10-04T16:02:34.867Z,101050.00
2022-10-04T16:05:33.818Z,101048.00
2022-10-04T16:08:09.501Z,101037.00
2022-10-04T16:10:58.515Z,101036.00
2022-10-04T16:13:43.298Z,101041.00
2022-10-04T16:16:15.589Z,101043.00
2022-10-04T16:18:53.951Z,101042.00
2022-10-04T16:21:48.850Z,101036.00
2022-10-04T16:24:18.287Z,101043.00
2022-10-04T16:26:44.966Z,101041.00
2022-10-04T16:29:29.873Z,101044.00
2022-10-04T16:32:04.971Z,101036.00
2022-10-04T16:34:45.344Z,101031.00
2022-10-04T16:37:24.106Z,101021.00
2022-10-04T16:40:05.764Z,101016.00
2022-10-04T16:42:44.421Z,101014.00
2022-10-04T16:45:11.696Z,101020.00
2022-10-04T16:47:56.404Z,101021.00
2022-10-04T16:50:57.832Z,101023.00
2022-10-04T16:53:34.189Z,101033.00
2022-10-04T16:56:22.009Z,101035.00
2022-10-04T16:58:59.562Z,101042.00
2022-10-04T17:01:34.033Z,101041.00
2022-10-04T17:04:03.635Z,101049.00
2022-10-04T17:06:39.426Z,101047.00
2022-10-04T17:09:26.604Z,101052.00
2022-10-04T17:12:11.363Z,101054.00
2022-10-04T17:14:56.098Z,101052.00
2022-10-04T17:17:22.937Z,101044.00
2022-10-04T17:20:15.791Z,101055.00
2022-10-04T17:22:55.619Z,101063.00
2022-10-04T17:25:33.702Z,101063.00
2022-10-04T17:28:14.305Z,101069.00
2022-10-04T17:30:50.316Z,101067.00
2022-10-04T17:33:46.774Z,101066.00
2022-10-04T17:36:20.490Z,101071.00
2022-10-04T17:38:58.051Z,101076.00
2022-10-04T17:41:31.084Z,101071.00
2022-10-04T17:44:25.342Z,101062.00
2022-10-04T17:47:00.061Z,101056.00
2022-10-04T17:50:15.043Z,101057.00
2022-10-04T17:53:04.199Z,101055.00
2022-10-04T17:55:55.812Z,101062.00
2022-10-04T17:58:26.751Z,101056.00
2022-10-04T18:01:02.342Z,101038.00
2022-10-04T18:03:33.069Z,101027.00
2022-10-04T18:06:05.848Z,101028.00
2022-10-04T18:08:44.132Z,101035.00
2022-10-04T18:11:35.565Z,101049.00
2022-10-04T18:14:11.929Z,101038.00
2022-10-04T18:16:57.284Z,101042.00
2022-10-04T18:19:51.309Z,101033.00
2022-10-04T18:22:23.689Z,101024.00
2022-10-04T18:25:12.852Z,101030.00
2022-10-04T18:28:07.460Z,101031.00
2022-10-04T18:30:48.430Z,101029.00
2022-10-04T18:33:26.609Z,101037.00
2022-10-04T18:36:01.125Z,101044.00
2022-10-04T18:38:28.858Z,101038.00
2022-10-04T18:41:02.347Z,101037.00
2022-10-04T18:43:35.633Z,101042.00
2022-10-04T18:46:22.040Z,101038.00
2022-10-04T18:49:01.567Z,101033.00
2022-10-04T18:51:39.161Z,101026.00
2022-10-04T18:54:28.195Z,101023.00
2022-10-04T18:57:04.569Z,101030.00
2022-10-04T19:00:05.725Z,101021.00
2022-10-04T19:02:44.478Z,101020.00
2022-10-04T19:05:23.660Z,101020.00
2022-10-04T19:07:53.865Z,101031.00
2022-10-04T19:10:20.501Z,101037.00
2022-10-04T19:13:28.582Z,101035.00
2022-10-04T19:16:00.874Z,101040.00
2022-10-04T19:18:36.169Z,101041.00
2022-10-04T19:21:24.269Z,101035.00
2022-10-04T19:24:23.282Z,101026.00
2022-10-04T19:27:07.306Z,101024.00
2022-10-04T19:29:38.187Z,101032.00
2022-10-04T19:32:29.288Z,101038.00
2022-10-04T19:35:28.847Z,101039.00
2022-10-04T19:38:13.839Z,101046.00
2022-10-04T19:40:48.506Z,101041.00
2022-10-04T19:43:30.088Z,101030.00
2022-10-04T19:46:16.960Z,101031.00
2022-10-04T19:48:51.189Z,101036.00
2022-10-04T19:51:38.564Z,101035.00
2022-10-04T19:54:16.311Z,101046.00
2022-10-04T19:56:48.690Z,101041.00
2022-10-04T19:59:26.615Z,101049.00
2022-10-04T20:01:53.205Z,101051.00
2022-10-04T20:04:35.002Z,101052.00
2022-10-04T20:07:11.465Z,101052.00
2022-10-04T20:09:38.031Z,101052.00
2022-10-04T20:12:05.490Z,101047.00
2022-10-04T20:14:32.148Z,101047.00
2022-10-04T20:17:02.042Z,101043.00
2022-10-04T20:19:28.834Z,101030.00
2022-10-04T20:21:55.278Z,101034.00
2022-10-04T20:24:47.517Z,101039.00
2022-10-04T20:27:30.418Z,101045.00
2022-10-04T20:29:59.331Z,101045.00
2022-10-04T20:32:34.766Z,101044.00
2022-10-04T20:35:07.695Z,101051.00
2022-10-04T20:38:07.580Z,101049.00
2022-10-04T20:40:38.908Z,101053.00
2022-10-04T20:43:14.446Z,101044.00
2022-10-04T20:46:01.503Z,101031.00
2022-10-04T20:48:31.261Z,101028.00
2022-10-04T20:51:06.956Z,101025.00
2022-10-04T20:53:33.561Z,101020.00
2022-10-04T20:56:37.158Z,101020.00
2022-10-04T20:59:04.469Z,101028.00
2022-10-04T21:01:35.850Z,101031.00
2022-10-04T21:04:46.867Z,101034.00
2022-10-04T21:07:19.234Z,101027.00
2022-10-04T21:09:46.090Z,101025.00
2022-10-04T21:12:34.518Z,101024.00
2022-10-04T21:15:16.265Z,101028.00
2022-10-04T21:17:44.493Z,101030.00
2022-10-04T21:20:50.442Z,101025.00
2022-10-04T21:23:32.850Z,101026.00
2022-10-04T21:26:23.150Z,101026.00
2022-10-04T21:28:54.481Z,101023.00
2022-10-04T21:31:21.244Z,101013.00
2022-10-04T21:33:47.821Z,101010.00
2022-10-04T21:36:14.369Z,101001.00
2022-10-04T21:38:41.095Z,100989.00
2022-10-04T21:41:07.604Z,100994.00
2022-10-04T21:43:34.494Z,100983.00
2022-10-04T21:46:01.128Z,100982.00
2022-10-04T21:48:27.854Z,100972.00
2022-10-04T21:50:54.475Z,100985.00
2022-10-04T21:53:21.385Z,100976.00
2022-10-04T21:55:47.925Z,100973.00
2022-10-04T21:58:14.448Z,100969.00
2022-10-04T22:00:41.015Z,100964.00
2022-10-04T22:03:07.532Z,100965.00
2022-10-04T22:05:34.171Z,100975.00
2022-10-04T22:08:00.810Z,100979.00
2022-10-04T22:10:27.287Z,100983.00
2022-10-04T22:12:58.252Z,100974.00
2022-10-04T22:15:26.170Z,100970.00
2022-10-04T22:17:52.781Z,100969.00
2022-10-04T22:20:19.523Z,100974.00
2022-10-04T22:22:46.211Z,100959.00
2022-10-04T22:25:19.196Z,100957.00
2022-10-04T22:27:46.543Z,100953.00
2022-10-04T22:30:25.819Z,100961.00
2022-10-04T22:32:55.887Z,100955.00
2022-10-04T22:35:22.736Z,100948.00
2022-10-04T22:37:49.871Z,100942.00
2022-10-04T22:40:22.446Z,100942.00
2022-10-04T22:42:51.407Z,100937.00
2022-10-04T22:45:23.701Z,100952.00
2022-10-04T22:47:51.399Z,100944.00
2022-10-04T22:50:27.422Z,100943.00
2022-10-04T22:52:54.201Z,100941.00
2022-10-04T22:55:23.440Z,100936.00
2022-10-04T22:57:49.826Z,100929.00
2022-10-04T23:00:16.350Z,100922.00
2022-10-04T23:02:42.927Z,100923.00
2022-10-04T23:05:12.804Z,100924.00
2022-10-04T23:07:39.330Z,100914.00
2022-10-04T23:10:06.878Z,100915.00
2022-10-04T23:12:35.657Z,100915.00
2022-10-04T23:15:03.128Z,100913.00
2022-10-04T23:17:33.834Z,100919.00
2022-10-04T23:20:17.584Z,100926.00
2022-10-04T23:22:49.387Z,100920.00
2022-10-04T23:25:21.751Z,100922.00
2022-10-04T23:27:48.296Z,100922.00
2022-10-04T23:30:18.151Z,100922.00
2022-10-04T23:32:46.729Z,100924.00
2022-10-04T23:35:27.871Z,100919.00
2022-10-04T23:37:54.748Z,100911.00
2022-10-04T23:40:22.502Z,100912.00
2022-10-04T23:42:51.262Z,100909.00
2022-10-04T23:45:19.739Z,100902.00
2022-10-04T23:47:49.187Z,100894.00
2022-10-04T23:50:35.908Z,100884.00
2022-10-04T23:53:06.355Z,100893.00
2022-10-04T23:55:35.449Z,100898.00
2022-10-04T23:58:05.889Z,100912.00
